Terminal Aerodrome Forecast
Issued by NWS Grand Forks, ND

Home | Current Version | Previous Version | Graphics & Text | Print | Product List | Glossary On
Versions: 1 2 3 4 5 6 7 8 9 10 11 12 13 14 15 16 17 18 19 20
000
FTUS43 KFGF 030000 AAA
TAFFAR
TAF AMD
KFAR 030026Z 0300/0324 VRB05KT P6SM BKN120
     FM030200 17008KT P6SM BKN120
     FM030900 31009KT P6SM SCT120
     FM031500 31017G25KT P6SM SCT120=

USA.gov is the U.S. government's official web portal to all federal, state and local government web resources and services.